createdAt,value
2023-05-30T00:02:02.062Z,60.67
2023-05-30T00:04:31.644Z,60.48
2023-05-30T00:07:00.288Z,60.41
2023-05-30T00:09:28.382Z,60.23
2023-05-30T00:11:56.738Z,60.15
2023-05-30T00:14:27.667Z,60.05
2023-05-30T00:16:57.920Z,59.93
2023-05-30T00:19:26.194Z,60.20
2023-05-30T00:21:55.990Z,60.06
2023-05-30T00:24:25.982Z,59.85
2023-05-30T00:26:54.107Z,60.00
2023-05-30T00:29:22.149Z,59.72
2023-05-30T00:31:50.336Z,59.70
2023-05-30T00:34:18.629Z,59.67
2023-05-30T00:36:47.897Z,59.77
2023-05-30T00:39:16.683Z,60.02
2023-05-30T00:41:45.069Z,59.86
2023-05-30T00:44:13.241Z,59.99
2023-05-30T00:46:41.886Z,59.83
2023-05-30T00:49:10.330Z,59.75
2023-05-30T00:51:39.507Z,59.79
2023-05-30T00:54:08.997Z,59.30
2023-05-30T00:56:37.887Z,59.34
2023-05-30T00:59:07.197Z,59.26
2023-05-30T01:01:35.504Z,59.03
2023-05-30T01:04:03.647Z,58.84
2023-05-30T01:06:33.808Z,59.04
2023-05-30T01:09:04.119Z,59.28
2023-05-30T01:11:53.757Z,59.31
2023-05-30T01:14:24.801Z,59.50
2023-05-30T01:17:03.627Z,59.55
2023-05-30T01:20:11.116Z,59.69
2023-05-30T01:22:57.719Z,59.68
2023-05-30T01:25:50.998Z,60.01
2023-05-30T01:28:22.547Z,60.34
2023-05-30T01:30:53.990Z,60.71
2023-05-30T01:33:23.700Z,60.96
2023-05-30T01:35:54.551Z,61.26
2023-05-30T01:38:23.010Z,61.35
2023-05-30T01:40:55.888Z,61.41
2023-05-30T01:43:45.986Z,61.65
2023-05-30T01:46:37.506Z,62.25
2023-05-30T01:49:11.413Z,62.99
2023-05-30T01:51:51.898Z,63.79
2023-05-30T01:54:21.907Z,63.77
2023-05-30T01:57:07.914Z,63.09
2023-05-30T01:59:38.677Z,62.48
2023-05-30T02:02:08.392Z,59.62
2023-05-30T02:04:37.120Z,57.19
2023-05-30T02:07:05.964Z,56.72
2023-05-30T02:09:34.298Z,56.77
2023-05-30T02:12:03.582Z,56.88
2023-05-30T02:14:32.370Z,56.78
2023-05-30T02:17:01.013Z,56.53
2023-05-30T02:19:30.770Z,56.33
2023-05-30T02:21:58.841Z,56.24
2023-05-30T02:24:26.929Z,56.37
2023-05-30T02:26:55.498Z,56.57
2023-05-30T02:29:23.676Z,56.56
2023-05-30T02:31:51.959Z,56.66
2023-05-30T02:34:20.220Z,56.89
2023-05-30T02:36:48.397Z,56.74
2023-05-30T02:39:16.669Z,56.80
2023-05-30T02:41:45.152Z,56.80
2023-05-30T02:44:13.530Z,56.70
2023-05-30T02:46:42.647Z,56.79
2023-05-30T02:49:11.043Z,56.87
2023-05-30T02:51:39.591Z,56.91
2023-05-30T02:54:08.612Z,56.82
2023-05-30T02:56:59.398Z,56.87
2023-05-30T02:59:47.016Z,57.10
2023-05-30T03:02:15.393Z,57.04
2023-05-30T03:04:47.049Z,56.74
2023-05-30T03:07:19.175Z,56.46
2023-05-30T03:09:48.412Z,56.37
2023-05-30T03:12:17.104Z,56.37
2023-05-30T03:14:45.808Z,56.71
2023-05-30T03:17:15.120Z,56.45
2023-05-30T03:19:43.803Z,56.23
2023-05-30T03:22:13.501Z,55.91
2023-05-30T03:24:42.079Z,55.90
2023-05-30T03:27:11.098Z,55.56
2023-05-30T03:29:40.049Z,55.82
2023-05-30T03:32:09.266Z,55.89
2023-05-30T03:34:38.144Z,55.68
2023-05-30T03:37:07.039Z,55.40
2023-05-30T03:39:35.092Z,55.55
2023-05-30T03:42:03.506Z,55.20
2023-05-30T03:44:31.676Z,55.29
2023-05-30T03:47:00.872Z,54.85
2023-05-30T03:49:29.220Z,54.94
2023-05-30T03:51:57.435Z,54.91
2023-05-30T03:54:25.600Z,54.90
2023-05-30T03:56:53.871Z,54.94
2023-05-30T03:59:22.732Z,54.40
2023-05-30T04:01:50.976Z,54.25
2023-05-30T04:04:19.286Z,54.50
2023-05-30T04:06:49.487Z,54.29
2023-05-30T04:09:17.610Z,54.79
2023-05-30T04:11:45.657Z,54.81
2023-05-30T04:14:14.129Z,54.86
2023-05-30T04:16:42.236Z,54.87
2023-05-30T04:19:10.280Z,55.01
2023-05-30T04:21:39.167Z,55.05
2023-05-30T04:24:08.641Z,55.37
2023-05-30T04:26:37.992Z,54.69
2023-05-30T04:29:09.727Z,53.81
2023-05-30T04:31:38.849Z,53.19
2023-05-30T04:34:07.308Z,53.57
2023-05-30T04:36:38.004Z,52.65
2023-05-30T04:39:06.736Z,53.29
2023-05-30T04:41:35.444Z,53.20
2023-05-30T04:44:05.019Z,53.51
2023-05-30T04:46:33.088Z,53.63
2023-05-30T04:49:03.107Z,53.51
2023-05-30T04:51:34.391Z,53.22
2023-05-30T04:54:02.901Z,53.70
2023-05-30T04:56:31.201Z,53.89
2023-05-30T04:58:59.376Z,54.21
2023-05-30T05:01:27.819Z,54.45
2023-05-30T05:03:56.254Z,54.72
2023-05-30T05:06:24.664Z,54.69
2023-05-30T05:08:52.992Z,54.73
2023-05-30T05:11:24.632Z,54.73
2023-05-30T05:13:52.822Z,54.65
2023-05-30T05:16:21.277Z,54.54
2023-05-30T05:18:51.014Z,54.45
2023-05-30T05:21:19.409Z,54.12
2023-05-30T05:23:47.777Z,54.71
2023-05-30T05:26:16.559Z,54.56
2023-05-30T05:28:44.665Z,54.09
2023-05-30T05:31:12.808Z,54.33
2023-05-30T05:33:40.979Z,54.75
2023-05-30T05:36:09.358Z,54.84
2023-05-30T05:38:37.447Z,54.42
2023-05-30T05:41:05.704Z,54.04
2023-05-30T05:43:33.895Z,54.22
2023-05-30T05:46:01.973Z,54.24
2023-05-30T05:48:30.167Z,54.60
2023-05-30T05:50:58.516Z,54.54
2023-05-30T05:53:26.777Z,54.47
2023-05-30T05:55:56.117Z,54.17
2023-05-30T05:58:24.188Z,54.02
2023-05-30T06:00:52.854Z,54.39
2023-05-30T06:03:21.193Z,54.50
2023-05-30T06:05:49.489Z,54.27
2023-05-30T06:08:17.563Z,54.16
2023-05-30T06:10:46.383Z,54.23
2023-05-30T06:13:14.473Z,54.22
2023-05-30T06:15:42.819Z,54.00
2023-05-30T06:18:11.295Z,54.46
2023-05-30T06:20:39.277Z,54.55
2023-05-30T06:23:07.422Z,54.90
2023-05-30T06:25:35.800Z,52.66
2023-05-30T06:28:04.073Z,53.10
2023-05-30T06:30:32.243Z,52.93
2023-05-30T06:33:00.360Z,53.23
2023-05-30T06:35:28.587Z,52.24
2023-05-30T06:37:56.698Z,52.10
2023-05-30T06:40:25.197Z,52.38
2023-05-30T06:42:53.444Z,51.76
2023-05-30T06:45:22.001Z,51.31
2023-05-30T06:47:50.046Z,50.88
2023-05-30T06:50:18.276Z,49.72
2023-05-30T06:52:46.628Z,49.76
2023-05-30T06:55:16.641Z,49.88
2023-05-30T06:57:47.418Z,49.93
2023-05-30T07:00:18.380Z,49.12
2023-05-30T07:02:47.062Z,49.42
2023-05-30T07:05:15.405Z,50.06
2023-05-30T07:07:44.568Z,49.87
2023-05-30T07:10:13.912Z,49.62
2023-05-30T07:12:42.063Z,49.92
2023-05-30T07:15:11.456Z,50.46
2023-05-30T07:17:39.641Z,50.44
2023-05-30T07:20:09.217Z,50.41
2023-05-30T07:22:39.462Z,50.26
2023-05-30T07:25:08.134Z,49.72
2023-05-30T07:27:36.470Z,48.27
2023-05-30T07:30:05.099Z,48.26
2023-05-30T07:32:33.595Z,48.07
2023-05-30T07:35:02.370Z,47.44
2023-05-30T07:37:30.651Z,47.91
2023-05-30T07:40:05.261Z,48.91
2023-05-30T07:42:34.686Z,47.44
2023-05-30T07:45:02.873Z,47.04
2023-05-30T07:47:31.170Z,47.31
2023-05-30T07:49:59.742Z,47.38
2023-05-30T07:52:27.889Z,46.79
2023-05-30T07:54:56.358Z,47.55
2023-05-30T07:57:24.430Z,47.38
2023-05-30T07:59:52.533Z,47.44
2023-05-30T08:02:22.356Z,47.25
2023-05-30T08:04:50.576Z,47.54
2023-05-30T08:07:18.761Z,47.19
2023-05-30T08:09:47.144Z,46.89
2023-05-30T08:12:19.819Z,47.33
2023-05-30T08:14:48.512Z,46.46
2023-05-30T08:17:17.730Z,45.85
2023-05-30T08:19:46.402Z,46.98
2023-05-30T08:22:14.564Z,46.42
2023-05-30T08:24:43.045Z,46.46
2023-05-30T08:27:12.137Z,46.63
2023-05-30T08:29:42.380Z,46.10
2023-05-30T08:32:10.643Z,45.50
2023-05-30T08:34:39.944Z,45.60
2023-05-30T08:37:08.111Z,45.28
2023-05-30T08:39:36.145Z,45.30
2023-05-30T08:42:05.524Z,45.06
2023-05-30T08:44:34.178Z,45.49
2023-05-30T08:47:02.700Z,44.92
2023-05-30T08:49:35.032Z,43.86
2023-05-30T08:52:04.432Z,43.68
2023-05-30T08:54:43.126Z,43.93
2023-05-30T08:57:18.519Z,43.79
2023-05-30T08:59:50.736Z,43.62
2023-05-30T09:02:22.160Z,43.29
2023-05-30T09:04:52.136Z,43.53
2023-05-30T09:07:22.656Z,44.10
2023-05-30T09:09:52.777Z,44.28
2023-05-30T09:12:22.482Z,44.17
2023-05-30T09:14:50.576Z,44.40
2023-05-30T09:17:19.133Z,43.66
2023-05-30T09:19:47.821Z,42.74
2023-05-30T09:22:17.022Z,43.54
2023-05-30T09:24:56.437Z,43.23
2023-05-30T09:27:25.925Z,43.46
2023-05-30T09:29:54.262Z,43.47
2023-05-30T09:32:36.296Z,43.03
2023-05-30T09:35:07.634Z,42.35
2023-05-30T09:37:37.886Z,42.93
2023-05-30T09:40:08.297Z,41.40
2023-05-30T09:42:45.220Z,42.45
2023-05-30T09:45:19.397Z,42.23
2023-05-30T09:47:49.747Z,42.77
2023-05-30T09:50:22.775Z,43.26
2023-05-30T09:52:53.537Z,41.49
2023-05-30T09:55:21.955Z,41.83
2023-05-30T09:57:52.123Z,42.11
2023-05-30T10:00:25.884Z,41.66
2023-05-30T10:02:55.760Z,41.48
2023-05-30T10:05:29.776Z,41.62
2023-05-30T10:07:59.488Z,41.37
2023-05-30T10:10:28.408Z,41.71
2023-05-30T10:12:59.040Z,41.79
2023-05-30T10:15:27.581Z,41.32
2023-05-30T10:18:10.385Z,40.81
2023-05-30T10:20:46.025Z,41.38
2023-05-30T10:23:15.098Z,41.71
2023-05-30T10:25:51.081Z,41.31
2023-05-30T10:28:27.707Z,41.08
2023-05-30T10:30:57.827Z,38.88
2023-05-30T10:33:43.885Z,39.20
2023-05-30T10:36:18.428Z,38.84
2023-05-30T10:39:24.488Z,39.39
2023-05-30T10:42:01.273Z,39.22
2023-05-30T10:44:41.929Z,39.40
2023-05-30T10:47:35.117Z,39.50
2023-05-30T10:50:08.655Z,40.02
2023-05-30T10:52:36.801Z,39.25
2023-05-30T10:55:12.045Z,38.84
2023-05-30T10:57:42.517Z,39.45
2023-05-30T11:00:27.402Z,37.89
2023-05-30T11:02:58.802Z,38.67
2023-05-30T11:05:34.326Z,39.30
2023-05-30T11:08:03.303Z,37.96
2023-05-30T11:10:33.238Z,37.32
2023-05-30T11:13:12.887Z,38.17
2023-05-30T11:15:47.699Z,38.58
2023-05-30T11:18:17.800Z,37.73
2023-05-30T11:20:53.238Z,37.55
2023-05-30T11:23:23.205Z,36.67
2023-05-30T11:25:54.883Z,37.10
2023-05-30T11:28:35.812Z,37.47
2023-05-30T11:31:18.570Z,37.31
2023-05-30T11:33:48.384Z,36.11
2023-05-30T11:36:16.588Z,36.27
2023-05-30T11:38:48.458Z,37.00
2023-05-30T11:41:17.449Z,37.49
2023-05-30T11:43:46.574Z,37.12
2023-05-30T11:46:19.876Z,36.59
2023-05-30T11:48:48.151Z,37.61
2023-05-30T11:59:00.160Z,36.52
2023-05-30T12:01:28.677Z,35.87
2023-05-30T12:03:57.462Z,35.21
2023-05-30T12:06:25.598Z,33.84
2023-05-30T12:08:53.765Z,33.12
2023-05-30T12:11:22.980Z,33.79
2023-05-30T12:13:55.445Z,34.47
2023-05-30T12:16:24.545Z,33.29
2023-05-30T12:18:52.850Z,34.46
2023-05-30T12:21:21.042Z,33.72
2023-05-30T12:23:49.285Z,32.57
2023-05-30T12:26:19.371Z,33.53
2023-05-30T12:28:49.243Z,33.36
2023-05-30T12:31:24.807Z,31.20
2023-05-30T12:33:53.036Z,32.15
2023-05-30T12:36:30.059Z,30.91
2023-05-30T12:39:02.278Z,31.30
2023-05-30T12:41:32.056Z,30.01
2023-05-30T12:44:00.356Z,30.29
2023-05-30T12:46:29.412Z,31.07
2023-05-30T12:48:57.997Z,30.28
2023-05-30T12:51:26.814Z,30.40
2023-05-30T12:53:55.013Z,31.65
2023-05-30T12:56:23.474Z,32.34
2023-05-30T12:58:51.473Z,31.99
2023-05-30T13:01:19.920Z,31.97
2023-05-30T13:03:49.775Z,31.35
2023-05-30T13:06:18.108Z,30.39
2023-05-30T13:08:46.409Z,30.47
2023-05-30T13:11:14.581Z,28.68
2023-05-30T13:13:43.036Z,29.83
2023-05-30T13:16:11.137Z,29.88
2023-05-30T13:18:39.402Z,30.05
2023-05-30T13:21:07.773Z,30.88
2023-05-30T13:23:36.342Z,31.00
2023-05-30T13:26:04.517Z,29.95
2023-05-30T13:28:33.934Z,30.80
2023-05-30T13:31:04.877Z,30.55
2023-05-30T13:33:35.096Z,30.44
2023-05-30T13:36:03.574Z,31.00
2023-05-30T13:38:31.938Z,31.28
2023-05-30T13:41:00.499Z,30.81
2023-05-30T13:43:28.942Z,30.08
2023-05-30T13:45:57.519Z,30.16
2023-05-30T13:48:25.801Z,30.02
2023-05-30T13:50:53.847Z,29.02
2023-05-30T13:53:30.435Z,28.93
2023-05-30T13:56:03.913Z,28.77
2023-05-30T13:58:32.120Z,28.86
2023-05-30T14:01:04.564Z,29.70
2023-05-30T14:03:33.222Z,30.10
2023-05-30T14:06:05.916Z,30.27
2023-05-30T14:08:34.942Z,28.98
2023-05-30T14:11:03.187Z,29.67
2023-05-30T14:13:31.561Z,28.72
2023-05-30T14:15:59.867Z,28.56
2023-05-30T14:18:28.665Z,28.43
2023-05-30T14:20:56.860Z,29.35
2023-05-30T14:23:24.980Z,29.51
2023-05-30T14:25:53.065Z,30.05
2023-05-30T14:28:21.216Z,30.08
2023-05-30T14:30:49.395Z,29.92
2023-05-30T14:33:17.615Z,30.72
2023-05-30T14:35:46.029Z,30.69
2023-05-30T14:38:14.116Z,30.58
2023-05-30T14:40:42.199Z,30.73
2023-05-30T14:43:11.197Z,30.41
2023-05-30T14:45:39.516Z,29.82
2023-05-30T14:48:09.224Z,29.99
2023-05-30T14:50:37.544Z,30.92
2023-05-30T14:53:05.647Z,30.91
2023-05-30T14:55:34.228Z,30.78
2023-05-30T14:58:02.885Z,30.76
2023-05-30T15:00:31.372Z,30.51
2023-05-30T15:02:59.749Z,31.61
2023-05-30T15:05:28.443Z,31.63
2023-05-30T15:07:56.922Z,31.92
2023-05-30T15:10:25.151Z,31.88
2023-05-30T15:12:53.365Z,31.14
2023-05-30T15:15:21.633Z,31.90
2023-05-30T15:17:49.724Z,31.87
2023-05-30T15:20:18.227Z,30.83
2023-05-30T15:22:47.928Z,30.85
2023-05-30T15:25:17.007Z,31.30
2023-05-30T15:27:45.089Z,31.28
2023-05-30T15:30:13.486Z,31.36
2023-05-30T15:32:41.837Z,31.18
2023-05-30T15:35:10.067Z,30.78
2023-05-30T15:37:38.304Z,30.81
2023-05-30T15:40:07.565Z,31.40
2023-05-30T15:42:35.669Z,31.77
2023-05-30T15:45:04.716Z,32.33
2023-05-30T15:47:33.154Z,31.97
2023-05-30T15:50:01.741Z,32.24
2023-05-30T15:52:29.805Z,32.74
2023-05-30T15:54:57.809Z,32.87
2023-05-30T15:57:25.853Z,31.72
2023-05-30T15:59:54.026Z,32.22
2023-05-30T16:02:22.195Z,31.93
2023-05-30T16:04:50.279Z,31.55
2023-05-30T16:07:18.392Z,31.77
2023-05-30T16:09:46.729Z,31.53
2023-05-30T16:12:14.766Z,31.37
2023-05-30T16:14:42.778Z,31.51
2023-05-30T16:17:10.816Z,31.92
2023-05-30T16:19:38.725Z,31.60
2023-05-30T16:22:07.215Z,31.70
2023-05-30T16:24:35.154Z,32.05
2023-05-30T16:31:38.299Z,32.39
2023-05-30T16:34:06.390Z,32.91
2023-05-30T16:36:34.734Z,33.49
2023-05-30T16:39:02.782Z,33.32
2023-05-30T16:41:30.751Z,33.67
2023-05-30T16:43:59.108Z,33.49
2023-05-30T16:46:27.314Z,33.85
2023-05-30T16:48:55.478Z,33.75
2023-05-30T16:51:23.553Z,33.89
2023-05-30T16:53:54.589Z,34.48
2023-05-30T17:05:29.237Z,34.58
2023-05-30T17:07:57.330Z,34.06
2023-05-30T17:10:25.558Z,34.41
2023-05-30T17:12:53.511Z,34.42
2023-05-30T17:15:21.694Z,34.57
2023-05-30T17:17:53.226Z,34.63
2023-05-30T17:20:21.564Z,34.46
2023-05-30T17:22:49.574Z,34.44
2023-05-30T17:25:17.596Z,34.73
2023-05-30T17:27:47.780Z,35.05
2023-05-30T17:30:16.348Z,35.33
2023-05-30T17:32:44.485Z,35.41
2023-05-30T17:35:12.563Z,35.59
2023-05-30T17:37:40.622Z,35.51
2023-05-30T17:40:09.930Z,35.70
2023-05-30T17:42:38.158Z,35.83
2023-05-30T17:45:07.086Z,35.89
2023-05-30T17:47:35.098Z,36.11
2023-05-30T17:50:04.037Z,36.02
2023-05-30T17:52:32.059Z,36.30
2023-05-30T17:54:59.993Z,36.25
2023-05-30T17:57:28.144Z,36.46
2023-05-30T17:59:56.312Z,36.62
2023-05-30T18:02:24.568Z,36.98
2023-05-30T18:04:52.592Z,37.13
2023-05-30T18:07:20.588Z,37.33
2023-05-30T18:09:48.653Z,37.33
2023-05-30T18:12:16.882Z,37.46
2023-05-30T18:14:44.831Z,37.69
2023-05-30T18:17:12.811Z,37.77
2023-05-30T18:19:40.829Z,37.75
2023-05-30T18:22:08.815Z,37.83
2023-05-30T18:24:36.754Z,38.09
2023-05-30T18:27:05.049Z,38.30
2023-05-30T18:29:36.430Z,38.27
2023-05-30T18:32:04.804Z,38.39
2023-05-30T18:34:33.481Z,38.92
2023-05-30T18:37:01.466Z,38.88
2023-05-30T18:39:29.400Z,39.71
2023-05-30T18:41:57.348Z,39.45
2023-05-30T18:44:25.269Z,39.64
2023-05-30T18:46:53.205Z,39.69
2023-05-30T18:49:21.443Z,40.41
2023-05-30T18:51:51.829Z,40.33
2023-05-30T18:54:19.884Z,40.63
2023-05-30T18:56:48.142Z,40.81
2023-05-30T18:59:16.090Z,41.12
2023-05-30T19:01:44.231Z,41.42
2023-05-30T19:04:12.367Z,41.52
2023-05-30T19:06:40.351Z,41.76
2023-05-30T19:09:08.330Z,41.98
2023-05-30T19:11:36.587Z,42.74
2023-05-30T19:18:39.208Z,42.80
2023-05-30T19:21:07.152Z,43.43
2023-05-30T19:23:35.143Z,43.68
2023-05-30T19:26:04.086Z,43.76
2023-05-30T19:28:35.312Z,44.14
2023-05-30T19:31:04.604Z,44.51
2023-05-30T19:33:32.570Z,44.73
2023-05-30T19:36:02.305Z,45.04
2023-05-30T19:38:30.622Z,45.53
2023-05-30T19:41:00.335Z,45.73
2023-05-30T19:43:28.475Z,46.03
2023-05-30T19:45:56.381Z,46.36
2023-05-30T19:48:24.597Z,46.82
2023-05-30T19:50:52.829Z,47.08
2023-05-30T19:53:20.782Z,47.28
2023-05-30T19:55:48.684Z,47.73
2023-05-30T19:58:22.280Z,48.09
2023-05-30T20:00:51.380Z,48.49
2023-05-30T20:03:20.100Z,48.73
2023-05-30T20:05:48.265Z,48.91
2023-05-30T20:08:16.487Z,49.14
2023-05-30T20:10:44.460Z,49.60
2023-05-30T20:13:12.850Z,50.11
2023-05-30T20:15:40.909Z,50.51
2023-05-30T20:22:43.218Z,50.30
2023-05-30T20:25:11.244Z,51.06
2023-05-30T20:27:39.473Z,51.63
2023-05-30T20:30:08.198Z,52.06
2023-05-30T20:32:36.402Z,52.36
2023-05-30T20:35:04.669Z,52.56
2023-05-30T20:37:32.911Z,52.72
2023-05-30T20:40:01.171Z,52.99
2023-05-30T20:42:29.162Z,53.22
2023-05-30T20:44:57.418Z,53.65
2023-05-30T20:47:25.517Z,53.66
2023-05-30T20:49:53.724Z,53.92
2023-05-30T20:52:21.751Z,54.24
2023-05-30T20:54:49.917Z,54.58
2023-05-30T20:57:22.433Z,54.74
2023-05-30T20:59:50.947Z,54.95
2023-05-30T21:02:19.168Z,55.03
2023-05-30T21:04:47.387Z,55.48
2023-05-30T21:07:15.439Z,55.67
2023-05-30T21:09:43.547Z,55.90
2023-05-30T21:12:11.944Z,56.10
2023-05-30T21:14:40.814Z,56.24
2023-05-30T21:17:11.705Z,56.49
2023-05-30T21:19:39.945Z,56.86
2023-05-30T21:22:07.980Z,57.25
2023-05-30T21:24:36.053Z,57.46
2023-05-30T21:27:04.476Z,57.48
2023-05-30T21:29:32.618Z,57.72
2023-05-30T21:32:00.863Z,57.87
2023-05-30T21:34:29.818Z,58.11
2023-05-30T21:36:58.823Z,58.17
2023-05-30T21:39:26.893Z,58.34
2023-05-30T21:41:55.946Z,58.62
2023-05-30T21:44:24.044Z,58.77
2023-05-30T21:46:52.056Z,58.07
2023-05-30T21:49:20.105Z,58.09
2023-05-30T21:51:48.146Z,58.34
2023-05-30T21:54:35.853Z,58.28
2023-05-30T21:57:05.826Z,58.21
2023-05-30T21:59:35.311Z,58.44
2023-05-30T22:02:05.911Z,58.24
2023-05-30T22:04:35.922Z,58.47
2023-05-30T22:07:08.221Z,58.84
2023-05-30T22:09:37.873Z,59.18
2023-05-30T22:12:07.875Z,59.38
2023-05-30T22:14:39.738Z,59.57
2023-05-30T22:17:11.889Z,59.52
2023-05-30T22:19:43.898Z,59.40
2023-05-30T22:22:14.863Z,59.45
2023-05-30T22:24:45.896Z,59.58
2023-05-30T22:27:17.884Z,59.58
2023-05-30T22:29:48.872Z,59.14
2023-05-30T22:32:19.937Z,59.87
2023-05-30T22:34:50.149Z,59.52
2023-05-30T22:37:20.099Z,59.27
2023-05-30T22:39:50.063Z,59.21
2023-05-30T22:42:21.314Z,59.03
2023-05-30T22:44:51.936Z,59.15
2023-05-30T22:47:23.270Z,59.08
2023-05-30T22:49:54.914Z,58.99
2023-05-30T22:52:26.939Z,58.91
2023-05-30T22:54:57.939Z,59.06
2023-05-30T22:57:28.942Z,59.93
2023-05-30T22:59:59.934Z,59.41
2023-05-30T23:02:31.003Z,59.44
2023-05-30T23:05:02.311Z,59.76
2023-05-30T23:07:33.109Z,59.91
2023-05-30T23:10:03.961Z,59.81
2023-05-30T23:20:08.337Z,60.57
2023-05-30T23:22:36.486Z,60.81
2023-05-30T23:25:05.274Z,60.82
2023-05-30T23:27:33.354Z,61.14
2023-05-30T23:30:01.417Z,61.15
2023-05-30T23:32:29.668Z,61.26
2023-05-30T23:34:57.765Z,61.54
2023-05-30T23:37:25.731Z,61.64
2023-05-30T23:39:53.828Z,61.83
2023-05-30T23:42:21.887Z,62.06
2023-05-30T23:44:50.051Z,62.78
2023-05-30T23:47:18.121Z,64.72
2023-05-30T23:49:46.494Z,64.30
2023-05-30T23:52:15.109Z,63.53
2023-05-30T23:54:43.145Z,62.84
2023-05-30T23:57:11.529Z,61.05
2023-05-30T23:59:41.779Z,59.24
